sensor_id;sensor_type;location;lat;lon;timestamp;temperature;humidity
67165;SHT31;54093;50.014;19.984;2023-09-19T00:00:49;18.67;73.33
67165;SHT31;54093;50.014;19.984;2023-09-19T00:10:32;18.67;73.81
67165;SHT31;54093;50.014;19.984;2023-09-19T00:20:00;18.84;73.17
67165;SHT31;54093;50.014;19.984;2023-09-19T00:29:35;18.78;74.33
67165;SHT31;54093;50.014;19.984;2023-09-19T00:38:57;18.78;73.79
67165;SHT31;54093;50.014;19.984;2023-09-19T00:48:25;18.84;74.37
67165;SHT31;54093;50.014;19.984;2023-09-19T00:57:50;18.85;73.03
67165;SHT31;54093;50.014;19.984;2023-09-19T01:07:15;18.92;74.03
67165;SHT31;54093;50.014;19.984;2023-09-19T01:36:15;18.77;78.73
67165;SHT31;54093;50.014;19.984;2023-09-19T01:55:26;18.84;78.51
67165;SHT31;54093;50.014;19.984;2023-09-19T02:04:52;18.75;79.30
67165;SHT31;54093;50.014;19.984;2023-09-19T02:14:17;18.72;80.91
67165;SHT31;54093;50.014;19.984;2023-09-19T02:23:43;18.74;80.79
67165;SHT31;54093;50.014;19.984;2023-09-19T02:33:09;18.72;81.64
67165;SHT31;54093;50.014;19.984;2023-09-19T02:42:34;18.60;82.54
67165;SHT31;54093;50.014;19.984;2023-09-19T02:52:01;18.60;81.12
67165;SHT31;54093;50.014;19.984;2023-09-19T03:01:32;18.77;81.33
67165;SHT31;54093;50.014;19.984;2023-09-19T03:11:10;18.78;81.93
67165;SHT31;54093;50.014;19.984;2023-09-19T03:20:36;18.75;81.66
67165;SHT31;54093;50.014;19.984;2023-09-19T03:30:03;18.72;82.09
67165;SHT31;54093;50.014;19.984;2023-09-19T03:39:32;18.79;81.60
67165;SHT31;54093;50.014;19.984;2023-09-19T03:48:56;18.85;81.95
67165;SHT31;54093;50.014;19.984;2023-09-19T03:58:21;18.84;81.61
67165;SHT31;54093;50.014;19.984;2023-09-19T04:07:44;18.85;82.08
67165;SHT31;54093;50.014;19.984;2023-09-19T04:17:13;18.94;81.77
67165;SHT31;54093;50.014;19.984;2023-09-19T04:26:38;18.96;81.20
67165;SHT31;54093;50.014;19.984;2023-09-19T04:35:59;18.98;81.92
67165;SHT31;54093;50.014;19.984;2023-09-19T04:45:41;18.98;82.30
67165;SHT31;54093;50.014;19.984;2023-09-19T04:55:02;18.96;82.35
67165;SHT31;54093;50.014;19.984;2023-09-19T05:04:23;18.94;82.04
67165;SHT31;54093;50.014;19.984;2023-09-19T05:13:45;19.01;80.82
67165;SHT31;54093;50.014;19.984;2023-09-19T05:23:08;19.06;80.86
67165;SHT31;54093;50.014;19.984;2023-09-19T05:32:32;19.08;80.59
67165;SHT31;54093;50.014;19.984;2023-09-19T05:41:54;19.02;81.89
67165;SHT31;54093;50.014;19.984;2023-09-19T05:51:16;18.85;83.15
67165;SHT31;54093;50.014;19.984;2023-09-19T06:00:40;18.84;83.73
67165;SHT31;54093;50.014;19.984;2023-09-19T06:10:04;18.85;83.89
67165;SHT31;54093;50.014;19.984;2023-09-19T06:19:29;18.87;84.27
67165;SHT31;54093;50.014;19.984;2023-09-19T06:28:51;18.83;84.08
67165;SHT31;54093;50.014;19.984;2023-09-19T06:38:12;18.85;84.12
67165;SHT31;54093;50.014;19.984;2023-09-19T06:47:33;18.71;84.32
67165;SHT31;54093;50.014;19.984;2023-09-19T06:56:55;18.67;84.87
67165;SHT31;54093;50.014;19.984;2023-09-19T07:06:16;18.71;84.55
67165;SHT31;54093;50.014;19.984;2023-09-19T07:15:39;18.71;84.37
67165;SHT31;54093;50.014;19.984;2023-09-19T07:25:08;18.64;84.49
67165;SHT31;54093;50.014;19.984;2023-09-19T07:34:29;18.68;84.90
67165;SHT31;54093;50.014;19.984;2023-09-19T07:43:51;18.68;84.91
67165;SHT31;54093;50.014;19.984;2023-09-19T07:53:12;18.63;85.23
67165;SHT31;54093;50.014;19.984;2023-09-19T08:02:50;18.72;84.97
67165;SHT31;54093;50.014;19.984;2023-09-19T08:12:52;18.67;84.88
67165;SHT31;54093;50.014;19.984;2023-09-19T08:22:20;18.57;84.82
67165;SHT31;54093;50.014;19.984;2023-09-19T08:32:01;18.46;84.64
67165;SHT31;54093;50.014;19.984;2023-09-19T08:41:22;18.29;85.02
67165;SHT31;54093;50.014;19.984;2023-09-19T09:11:58;18.20;85.79
67165;SHT31;54093;50.014;19.984;2023-09-19T09:21:25;18.22;85.61
67165;SHT31;54093;50.014;19.984;2023-09-19T09:30:50;18.13;85.53
67165;SHT31;54093;50.014;19.984;2023-09-19T09:40:11;18.14;85.34
67165;SHT31;54093;50.014;19.984;2023-09-19T09:49:36;18.12;85.40
67165;SHT31;54093;50.014;19.984;2023-09-19T09:58:57;18.10;85.10
67165;SHT31;54093;50.014;19.984;2023-09-19T10:08:21;18.05;85.40
67165;SHT31;54093;50.014;19.984;2023-09-19T10:17:44;18.08;85.04
67165;SHT31;54093;50.014;19.984;2023-09-19T10:27:06;18.05;86.01
67165;SHT31;54093;50.014;19.984;2023-09-19T10:36:33;18.19;85.69
67165;SHT31;54093;50.014;19.984;2023-09-19T10:46:01;18.27;86.29
67165;SHT31;54093;50.014;19.984;2023-09-19T10:55:27;18.36;85.87
67165;SHT31;54093;50.014;19.984;2023-09-19T11:04:50;18.41;85.60
67165;SHT31;54093;50.014;19.984;2023-09-19T11:33:43;18.41;85.09
67165;SHT31;54093;50.014;19.984;2023-09-19T11:43:28;18.34;85.60
67165;SHT31;54093;50.014;19.984;2023-09-19T11:52:52;18.36;85.15
67165;SHT31;54093;50.014;19.984;2023-09-19T12:02:39;18.27;85.73
67165;SHT31;54093;50.014;19.984;2023-09-19T12:12:05;18.19;85.94
67165;SHT31;54093;50.014;19.984;2023-09-19T12:42:37;18.22;86.38
67165;SHT31;54093;50.014;19.984;2023-09-19T12:52:05;18.23;86.33
67165;SHT31;54093;50.014;19.984;2023-09-19T13:01:32;18.26;86.31
67165;SHT31;54093;50.014;19.984;2023-09-19T13:11:06;18.43;86.08
67165;SHT31;54093;50.014;19.984;2023-09-19T13:20:41;18.44;86.34
67165;SHT31;54093;50.014;19.984;2023-09-19T13:30:13;18.51;85.86
67165;SHT31;54093;50.014;19.984;2023-09-19T13:39:34;18.46;85.92
67165;SHT31;54093;50.014;19.984;2023-09-19T13:48:57;18.54;86.18
67165;SHT31;54093;50.014;19.984;2023-09-19T13:58:20;18.65;85.87
67165;SHT31;54093;50.014;19.984;2023-09-19T14:07:43;18.91;86.12
67165;SHT31;54093;50.014;19.984;2023-09-19T14:17:05;19.12;85.51
67165;SHT31;54093;50.014;19.984;2023-09-19T14:26:28;19.18;84.92
67165;SHT31;54093;50.014;19.984;2023-09-19T14:35:51;19.40;83.84
67165;SHT31;54093;50.014;19.984;2023-09-19T14:45:12;19.33;83.44
67165;SHT31;54093;50.014;19.984;2023-09-19T14:54:36;19.30;82.83
67165;SHT31;54093;50.014;19.984;2023-09-19T15:04:02;19.54;83.15
67165;SHT31;54093;50.014;19.984;2023-09-19T15:13:24;19.63;81.72
67165;SHT31;54093;50.014;19.984;2023-09-19T15:22:49;19.64;81.75
67165;SHT31;54093;50.014;19.984;2023-09-19T15:32:11;19.66;82.13
67165;SHT31;54093;50.014;19.984;2023-09-19T15:41:45;19.59;80.68
67165;SHT31;54093;50.014;19.984;2023-09-19T15:51:11;19.50;81.26
67165;SHT31;54093;50.014;19.984;2023-09-19T16:10:53;19.25;82.30
67165;SHT31;54093;50.014;19.984;2023-09-19T16:20:17;19.16;82.51
67165;SHT31;54093;50.014;19.984;2023-09-19T16:29:39;19.11;82.79
67165;SHT31;54093;50.014;19.984;2023-09-19T16:39:00;19.04;82.81
67165;SHT31;54093;50.014;19.984;2023-09-19T16:48:23;18.96;83.01
67165;SHT31;54093;50.014;19.984;2023-09-19T16:57:44;18.89;83.24
67165;SHT31;54093;50.014;19.984;2023-09-19T17:07:07;18.78;83.32
67165;SHT31;54093;50.014;19.984;2023-09-19T17:16:28;18.68;83.00
67165;SHT31;54093;50.014;19.984;2023-09-19T17:26:00;18.57;82.81
67165;SHT31;54093;50.014;19.984;2023-09-19T17:35:23;18.51;83.31
67165;SHT31;54093;50.014;19.984;2023-09-19T17:44:44;18.41;82.69
67165;SHT31;54093;50.014;19.984;2023-09-19T17:54:06;18.26;83.28
67165;SHT31;54093;50.014;19.984;2023-09-19T18:03:27;18.16;83.55
67165;SHT31;54093;50.014;19.984;2023-09-19T18:12:48;18.12;82.92
67165;SHT31;54093;50.014;19.984;2023-09-19T18:22:09;17.92;82.06
67165;SHT31;54093;50.014;19.984;2023-09-19T18:31:32;17.81;83.56
67165;SHT31;54093;50.014;19.984;2023-09-19T18:40:56;17.77;82.43
67165;SHT31;54093;50.014;19.984;2023-09-19T18:50:17;17.62;82.59
67165;SHT31;54093;50.014;19.984;2023-09-19T18:59:38;17.54;83.09
67165;SHT31;54093;50.014;19.984;2023-09-19T19:09:11;17.55;83.12
67165;SHT31;54093;50.014;19.984;2023-09-19T19:18:43;17.30;82.88
67165;SHT31;54093;50.014;19.984;2023-09-19T19:28:05;17.23;82.81
67165;SHT31;54093;50.014;19.984;2023-09-19T19:37:27;17.14;82.94
67165;SHT31;54093;50.014;19.984;2023-09-19T19:46:48;17.16;83.65
67165;SHT31;54093;50.014;19.984;2023-09-19T19:56:09;17.12;84.05
67165;SHT31;54093;50.014;19.984;2023-09-19T20:05:30;17.12;84.64
67165;SHT31;54093;50.014;19.984;2023-09-19T20:14:51;17.09;85.01
67165;SHT31;54093;50.014;19.984;2023-09-19T20:24:13;17.09;85.07
67165;SHT31;54093;50.014;19.984;2023-09-19T20:33:40;17.17;84.66
67165;SHT31;54093;50.014;19.984;2023-09-19T20:43:02;17.13;85.06
67165;SHT31;54093;50.014;19.984;2023-09-19T20:52:23;17.12;84.76
67165;SHT31;54093;50.014;19.984;2023-09-19T21:01:45;17.06;84.79
67165;SHT31;54093;50.014;19.984;2023-09-19T21:11:14;17.03;84.57
67165;SHT31;54093;50.014;19.984;2023-09-19T21:20:35;16.89;84.52
67165;SHT31;54093;50.014;19.984;2023-09-19T21:29:57;16.82;84.37
67165;SHT31;54093;50.014;19.984;2023-09-19T21:39:23;16.75;84.34
67165;SHT31;54093;50.014;19.984;2023-09-19T21:48:44;16.72;84.39
67165;SHT31;54093;50.014;19.984;2023-09-19T21:58:09;16.66;83.94
67165;SHT31;54093;50.014;19.984;2023-09-19T22:07:30;16.55;83.90
67165;SHT31;54093;50.014;19.984;2023-09-19T22:16:51;16.49;83.89
67165;SHT31;54093;50.014;19.984;2023-09-19T22:26:35;16.36;84.00
67165;SHT31;54093;50.014;19.984;2023-09-19T22:36:14;16.35;83.85
67165;SHT31;54093;50.014;19.984;2023-09-19T22:46:20;16.29;83.72
67165;SHT31;54093;50.014;19.984;2023-09-19T22:56:12;16.18;83.71
67165;SHT31;54093;50.014;19.984;2023-09-19T23:05:47;16.11;83.86
67165;SHT31;54093;50.014;19.984;2023-09-19T23:15:09;16.03;83.77
67165;SHT31;54093;50.014;19.984;2023-09-19T23:24:35;15.98;83.71
67165;SHT31;54093;50.014;19.984;2023-09-19T23:34:01;15.91;83.66
67165;SHT31;54093;50.014;19.984;2023-09-19T23:43:23;15.86;83.79
67165;SHT31;54093;50.014;19.984;2023-09-19T23:52:44;15.82;83.68
